Sardinia Regina — IBMS — position and weather

sailwx.info

Track history (hours):
 
Tides and Currents Weather Stations Pressure Air Temp Water Temp Dewpoint Dewpoint Depression Visibility Wind Speed Wind Dir Waves Ship Positions

Sardinia Regina

Last reported at 2017-Mar-28 15:34 UTC. Time now 2017-Mar-28 15:54 UTC.
Position N 43°23' E 010°10'.

Length 146 m; draft 5 m.

Type: Passenger vessel. MMSI: 247079000.

Date/timePositionNaut miles runAvg speedWind from/ knotsBaromVisibWave heightAir tempDewpointWater temp
2017-Mar-28 15:34N 43°23' E 010°10'1616.3
2017-Mar-28 14:33N 43°08' E 010°02'18 3.5
2017-Mar-28 09:27N 42°53' E 009°47'1517.0
2017-Mar-28 08:33N 43°05' E 010°00'1717.6
2017-Mar-28 07:34N 43°22' E 010°08'1313.1
2017-Mar-28 06:33N 43°33' E 010°18'0 0.3
2017-Mar-28 05:31N 43°33' E 010°18'1 1.0
2017-Mar-28 04:33N 43°33' E 010°17'1312.6
2017-Mar-28 03:34N 43°21' E 010°11'1817.6
2017-Mar-28 02:33N 43°04' E 010°05'9 0.3
2017-Mar-26 20:33N 43°13' E 010°07'1817.7
2017-Mar-26 19:33N 43°30' E 010°12'5 5.1
2017-Mar-26 18:28N 43°33' E 010°18'0 0.0
2017-Mar-26 17:31N 43°33' E 010°18'1 0.6
2017-Mar-26 16:33N 43°33' E 010°17'1313.0
2017-Mar-26 15:34N 43°21' E 010°09'16 2.5
2017-Mar-26 09:09N 43°06' E 010°00'1017.6
2017-Mar-26 08:34N 43°16' E 010°05'1716.9
2017-Mar-26 07:34N 43°32' E 010°15'3 2.6
2017-Mar-26 06:31N 43°33' E 010°18'1 1.3
2017-Mar-26 05:33N 43°32' E 010°17'1515.4
2017-Mar-26 04:34N 43°18' E 010°10'22 0.7
2017-Mar-24 22:33N 42°56' E 010°01'1817.8
2017-Mar-24 21:34N 43°14' E 010°06'1817.6
2017-Mar-24 20:34N 43°31' E 010°12'5 4.6
2017-Mar-24 19:32N 43°33' E 010°18'0 0.0
2017-Mar-24 18:32N 43°33' E 010°18'0 0.0
2017-Mar-24 17:32N 43°33' E 010°18'1010.6
2017-Mar-24 16:33N 43°24' E 010°11'1515.2
2017-Mar-24 15:33N 43°10' E 010°03'1515.1
2017-Mar-24 14:33N 42°57' E 009°54'5 1.2
2017-Mar-24 10:04N 42°54' E 009°48'916.2
2017-Mar-24 09:31N 42°59' E 009°57'1516.1
2017-Mar-24 08:33N 43°14' E 010°04'1616.2
2017-Mar-24 07:34N 43°29' E 010°12'6 5.8
2017-Mar-24 06:31N 43°33' E 010°18'0 0.0
2017-Mar-24 05:31N 43°33' E 010°18'1111.9
2017-Mar-24 04:33N 43°23' E 010°11'18 0.6
2017-Mar-22 22:19N 43°06' E 010°04'1317.4
2017-Mar-22 21:33N 43°19' E 010°08'1514.6
2017-Mar-22 20:33N 43°32' E 010°17'1 1.2
2017-Mar-22 19:31N 43°33' E 010°18'0 0.0
2017-Mar-22 18:31N 43°33' E 010°18'0 0.0
2017-Mar-22 17:31N 43°33' E 010°18'1010.6
2017-Mar-22 16:34N 43°25' E 010°11'35 5.4
2017-Mar-22 10:06N 42°54' E 009°48'1316.8
2017-Mar-22 09:18N 43°04' E 009°60'1317.5
2017-Mar-22 08:33N 43°17' E 010°05'1716.6
2017-Mar-22 07:33N 43°32' E 010°15'3 2.8
2017-Mar-22 06:33N 43°33' E 010°18'0 0.0
2017-Mar-22 05:33N 43°33' E 010°18'1211.6
2017-Mar-22 04:33N 43°23' E 010°11'28 1.0
2017-Mar-20 23:27N 42°56' E 010°02'1516.5
2017-Mar-20 22:34N 43°10' E 010°06'1716.4
2017-Mar-20 21:29N 43°27' E 010°11'8 8.4
2017-Mar-20 20:33N 43°33' E 010°18'0 0.0
2017-Mar-20 19:28N 43°33' E 010°18'0 0.0
2017-Mar-20 18:31N 43°33' E 010°18'0 0.0
2017-Mar-20 17:31N 43°33' E 010°18'0 0.0
2017-Mar-20 16:31N 43°33' E 010°18'0 0.0
2017-Mar-20 15:31N 43°33' E 010°18'0 0.0
2017-Mar-20 14:31N 43°33' E 010°18'0 0.0
2017-Mar-20 13:31N 43°33' E 010°18'0 0.0
2017-Mar-20 12:31N 43°33' E 010°18'0 0.0
2017-Mar-20 11:31N 43°33' E 010°18'0 0.0
2017-Mar-20 10:31N 43°33' E 010°18'0 0.0
2017-Mar-20 09:31N 43°33' E 010°18'0 0.0
2017-Mar-20 08:31N 43°33' E 010°18'0 0.0
2017-Mar-20 07:22N 43°33' E 010°18'0 0.0
2017-Mar-20 06:33N 43°33' E 010°18'0 0.0
2017-Mar-20 05:33N 43°33' E 010°18'1110.6
2017-Mar-20 04:33N 43°24' E 010°11'21 0.7
2017-Mar-18 22:13N 43°05' E 010°01'1015.7
2017-Mar-18 21:34N 43°15' E 010°04'1615.6
2017-Mar-18 20:34N 43°29' E 010°12'6 6.1
2017-Mar-18 19:33N 43°33' E 010°18'0 0.0
2017-Mar-18 18:33N 43°33' E 010°18'0 0.0
2017-Mar-18 17:30N 43°33' E 010°18'1010.1
2017-Mar-18 16:33N 43°25' E 010°12'  
Track history (hours):
 
Tides and Currents Weather Stations Pressure Air Temp Water Temp Dewpoint Dewpoint Depression Visibility Wind Speed Wind Dir Waves Ship Positions

Sardinia Regina

Last reported at 2017-Mar-28 15:34 UTC. Time now 2017-Mar-28 15:54 UTC.
Position N 43°23' E 010°10'.

Length 146 m; draft 5 m.

Type: Passenger vessel. MMSI: 247079000.

Date/timePositionNaut miles runAvg speedWind from/ knotsBaromVisibWave heightAir tempDewpointWater temp
2017-Mar-28 15:34N 43°23' E 010°10'1616.3
2017-Mar-28 14:33N 43°08' E 010°02'18 3.5
2017-Mar-28 09:27N 42°53' E 009°47'1517.0
2017-Mar-28 08:33N 43°05' E 010°00'1717.6
2017-Mar-28 07:34N 43°22' E 010°08'1313.1
2017-Mar-28 06:33N 43°33' E 010°18'0 0.3
2017-Mar-28 05:31N 43°33' E 010°18'1 1.0
2017-Mar-28 04:33N 43°33' E 010°17'1312.6
2017-Mar-28 03:34N 43°21' E 010°11'1817.6
2017-Mar-28 02:33N 43°04' E 010°05'9 0.3
2017-Mar-26 20:33N 43°13' E 010°07'1817.7
2017-Mar-26 19:33N 43°30' E 010°12'5 5.1
2017-Mar-26 18:28N 43°33' E 010°18'0 0.0
2017-Mar-26 17:31N 43°33' E 010°18'1 0.6
2017-Mar-26 16:33N 43°33' E 010°17'1313.0
2017-Mar-26 15:34N 43°21' E 010°09'16 2.5
2017-Mar-26 09:09N 43°06' E 010°00'1017.6
2017-Mar-26 08:34N 43°16' E 010°05'1716.9
2017-Mar-26 07:34N 43°32' E 010°15'3 2.6
2017-Mar-26 06:31N 43°33' E 010°18'1 1.3
2017-Mar-26 05:33N 43°32' E 010°17'1515.4
2017-Mar-26 04:34N 43°18' E 010°10'22 0.7
2017-Mar-24 22:33N 42°56' E 010°01'1817.8
2017-Mar-24 21:34N 43°14' E 010°06'1817.6
2017-Mar-24 20:34N 43°31' E 010°12'5 4.6
2017-Mar-24 19:32N 43°33' E 010°18'0 0.0
2017-Mar-24 18:32N 43°33' E 010°18'0 0.0
2017-Mar-24 17:32N 43°33' E 010°18'1010.6
2017-Mar-24 16:33N 43°24' E 010°11'1515.2
2017-Mar-24 15:33N 43°10' E 010°03'1515.1
2017-Mar-24 14:33N 42°57' E 009°54'5 1.2
2017-Mar-24 10:04N 42°54' E 009°48'916.2
2017-Mar-24 09:31N 42°59' E 009°57'1516.1
2017-Mar-24 08:33N 43°14' E 010°04'1616.2
2017-Mar-24 07:34N 43°29' E 010°12'6 5.8
2017-Mar-24 06:31N 43°33' E 010°18'0 0.0
2017-Mar-24 05:31N 43°33' E 010°18'1111.9
2017-Mar-24 04:33N 43°23' E 010°11'18 0.6
2017-Mar-22 22:19N 43°06' E 010°04'1317.4
2017-Mar-22 21:33N 43°19' E 010°08'1514.6
2017-Mar-22 20:33N 43°32' E 010°17'1 1.2
2017-Mar-22 19:31N 43°33' E 010°18'0 0.0
2017-Mar-22 18:31N 43°33' E 010°18'0 0.0
2017-Mar-22 17:31N 43°33' E 010°18'1010.6
2017-Mar-22 16:34N 43°25' E 010°11'35 5.4
2017-Mar-22 10:06N 42°54' E 009°48'1316.8
2017-Mar-22 09:18N 43°04' E 009°60'1317.5
2017-Mar-22 08:33N 43°17' E 010°05'1716.6
2017-Mar-22 07:33N 43°32' E 010°15'3 2.8
2017-Mar-22 06:33N 43°33' E 010°18'0 0.0
2017-Mar-22 05:33N 43°33' E 010°18'1211.6
2017-Mar-22 04:33N 43°23' E 010°11'28 1.0
2017-Mar-20 23:27N 42°56' E 010°02'1516.5
2017-Mar-20 22:34N 43°10' E 010°06'1716.4
2017-Mar-20 21:29N 43°27' E 010°11'8 8.4
2017-Mar-20 20:33N 43°33' E 010°18'0 0.0
2017-Mar-20 19:28N 43°33' E 010°18'0 0.0
2017-Mar-20 18:31N 43°33' E 010°18'0 0.0
2017-Mar-20 17:31N 43°33' E 010°18'0 0.0
2017-Mar-20 16:31N 43°33' E 010°18'0 0.0
2017-Mar-20 15:31N 43°33' E 010°18'0 0.0
2017-Mar-20 14:31N 43°33' E 010°18'0 0.0
2017-Mar-20 13:31N 43°33' E 010°18'0 0.0
2017-Mar-20 12:31N 43°33' E 010°18'0 0.0
2017-Mar-20 11:31N 43°33' E 010°18'0 0.0
2017-Mar-20 10:31N 43°33' E 010°18'0 0.0
2017-Mar-20 09:31N 43°33' E 010°18'0 0.0
2017-Mar-20 08:31N 43°33' E 010°18'0 0.0
2017-Mar-20 07:22N 43°33' E 010°18'0 0.0
2017-Mar-20 06:33N 43°33' E 010°18'0 0.0
2017-Mar-20 05:33N 43°33' E 010°18'1110.6
2017-Mar-20 04:33N 43°24' E 010°11'21 0.7
2017-Mar-18 22:13N 43°05' E 010°01'1015.7
2017-Mar-18 21:34N 43°15' E 010°04'1615.6
2017-Mar-18 20:34N 43°29' E 010°12'6 6.1
2017-Mar-18 19:33N 43°33' E 010°18'0 0.0
2017-Mar-18 18:33N 43°33' E 010°18'0 0.0
2017-Mar-18 17:30N 43°33' E 010°18'1010.1
2017-Mar-18 16:33N 43°25' E 010°12'  

Dump ship's entire track history